sensor_id;sensor_type;location;lat;lon;timestamp;temperature;humidity
74901;DHT22;63461;51.416;6.758;2023-12-20T00:00:42;8.70;99.90
74901;DHT22;63461;51.416;6.758;2023-12-20T00:03:08;8.60;99.90
74901;DHT22;63461;51.416;6.758;2023-12-20T00:05:34;8.60;99.90
74901;DHT22;63461;51.416;6.758;2023-12-20T00:08:28;8.60;99.90
74901;DHT22;63461;51.416;6.758;2023-12-20T00:11:07;8.50;99.90
74901;DHT22;63461;51.416;6.758;2023-12-20T00:13:59;8.50;99.90
74901;DHT22;63461;51.416;6.758;2023-12-20T00:16:36;8.30;99.90
74901;DHT22;63461;51.416;6.758;2023-12-20T00:19:05;8.30;99.90
74901;DHT22;63461;51.416;6.758;2023-12-20T00:21:35;8.30;99.90
74901;DHT22;63461;51.416;6.758;2023-12-20T00:24:01;8.20;99.90
74901;DHT22;63461;51.416;6.758;2023-12-20T00:26:29;8.20;99.90
74901;DHT22;63461;51.416;6.758;2023-12-20T00:28:55;8.20;99.90
74901;DHT22;63461;51.416;6.758;2023-12-20T00:31:24;8.20;99.90
74901;DHT22;63461;51.416;6.758;2023-12-20T00:33:50;8.20;99.90
74901;DHT22;63461;51.416;6.758;2023-12-20T00:36:21;8.30;99.90
74901;DHT22;63461;51.416;6.758;2023-12-20T00:39:04;8.40;99.90
74901;DHT22;63461;51.416;6.758;2023-12-20T00:41:32;8.40;99.90
74901;DHT22;63461;51.416;6.758;2023-12-20T00:43:58;8.40;99.90
74901;DHT22;63461;51.416;6.758;2023-12-20T00:46:24;8.30;99.90
74901;DHT22;63461;51.416;6.758;2023-12-20T00:48:50;8.30;99.90
74901;DHT22;63461;51.416;6.758;2023-12-20T00:51:16;8.40;99.90
74901;DHT22;63461;51.416;6.758;2023-12-20T00:54:17;8.30;99.90
74901;DHT22;63461;51.416;6.758;2023-12-20T00:57:02;8.30;99.90
74901;DHT22;63461;51.416;6.758;2023-12-20T00:59:28;8.30;99.90
74901;DHT22;63461;51.416;6.758;2023-12-20T01:02:19;8.30;99.90
74901;DHT22;63461;51.416;6.758;2023-12-20T01:04:59;8.40;99.90
74901;DHT22;63461;51.416;6.758;2023-12-20T01:07:53;8.40;99.90
74901;DHT22;63461;51.416;6.758;2023-12-20T01:14:10;8.40;99.90
74901;DHT22;63461;51.416;6.758;2023-12-20T01:25:03;8.40;99.90
74901;DHT22;63461;51.416;6.758;2023-12-20T01:27:31;8.40;99.90
74901;DHT22;63461;51.416;6.758;2023-12-20T01:30:03;8.30;99.90
74901;DHT22;63461;51.416;6.758;2023-12-20T01:32:31;8.30;99.90
74901;DHT22;63461;51.416;6.758;2023-12-20T01:34:57;8.30;99.90
74901;DHT22;63461;51.416;6.758;2023-12-20T01:37:23;8.20;99.90
74901;DHT22;63461;51.416;6.758;2023-12-20T01:40:00;8.20;99.90
74901;DHT22;63461;51.416;6.758;2023-12-20T01:42:25;8.20;99.90
74901;DHT22;63461;51.416;6.758;2023-12-20T01:44:51;8.00;99.90
74901;DHT22;63461;51.416;6.758;2023-12-20T01:47:17;7.90;99.90
74901;DHT22;63461;51.416;6.758;2023-12-20T01:49:48;7.80;99.90
74901;DHT22;63461;51.416;6.758;2023-12-20T01:52:17;7.80;99.90
74901;DHT22;63461;51.416;6.758;2023-12-20T01:54:43;7.80;99.90
74901;DHT22;63461;51.416;6.758;2023-12-20T01:57:09;7.80;99.90
74901;DHT22;63461;51.416;6.758;2023-12-20T01:59:35;7.80;99.90
74901;DHT22;63461;51.416;6.758;2023-12-20T02:02:03;7.80;99.90
74901;DHT22;63461;51.416;6.758;2023-12-20T02:04:29;7.80;99.90
74901;DHT22;63461;51.416;6.758;2023-12-20T02:06:56;7.80;99.90
74901;DHT22;63461;51.416;6.758;2023-12-20T02:09:22;7.80;99.90
74901;DHT22;63461;51.416;6.758;2023-12-20T02:11:49;7.70;99.90
74901;DHT22;63461;51.416;6.758;2023-12-20T02:14:15;7.70;99.90
74901;DHT22;63461;51.416;6.758;2023-12-20T02:16:41;7.60;99.90
74901;DHT22;63461;51.416;6.758;2023-12-20T02:19:13;7.70;99.90
74901;DHT22;63461;51.416;6.758;2023-12-20T02:21:39;7.70;99.90
74901;DHT22;63461;51.416;6.758;2023-12-20T02:24:05;7.70;99.90
74901;DHT22;63461;51.416;6.758;2023-12-20T02:26:32;7.60;99.90
74901;DHT22;63461;51.416;6.758;2023-12-20T02:28:59;7.50;99.90
74901;DHT22;63461;51.416;6.758;2023-12-20T02:31:25;7.50;99.90
74901;DHT22;63461;51.416;6.758;2023-12-20T02:33:51;7.50;99.90
74901;DHT22;63461;51.416;6.758;2023-12-20T02:36:17;7.40;99.90
74901;DHT22;63461;51.416;6.758;2023-12-20T02:38:43;7.40;99.90
74901;DHT22;63461;51.416;6.758;2023-12-20T02:41:09;7.30;99.90
74901;DHT22;63461;51.416;6.758;2023-12-20T02:43:35;7.30;99.90
74901;DHT22;63461;51.416;6.758;2023-12-20T02:46:00;7.30;99.90
74901;DHT22;63461;51.416;6.758;2023-12-20T02:48:26;7.30;99.90
74901;DHT22;63461;51.416;6.758;2023-12-20T02:50:52;7.20;99.90
74901;DHT22;63461;51.416;6.758;2023-12-20T02:53:18;7.10;99.90
74901;DHT22;63461;51.416;6.758;2023-12-20T02:55:44;7.20;99.90
74901;DHT22;63461;51.416;6.758;2023-12-20T02:58:09;7.20;99.90
74901;DHT22;63461;51.416;6.758;2023-12-20T03:00:35;7.20;99.90
74901;DHT22;63461;51.416;6.758;2023-12-20T03:03:01;7.20;99.90
74901;DHT22;63461;51.416;6.758;2023-12-20T03:05:27;7.20;99.90
74901;DHT22;63461;51.416;6.758;2023-12-20T03:07:53;7.10;99.90
74901;DHT22;63461;51.416;6.758;2023-12-20T03:10:19;7.10;99.90
74901;DHT22;63461;51.416;6.758;2023-12-20T03:12:45;7.20;99.90
74901;DHT22;63461;51.416;6.758;2023-12-20T03:15:10;7.20;99.90
74901;DHT22;63461;51.416;6.758;2023-12-20T03:17:36;7.20;99.90
74901;DHT22;63461;51.416;6.758;2023-12-20T03:20:02;7.20;99.90
74901;DHT22;63461;51.416;6.758;2023-12-20T03:22:28;7.30;99.90
74901;DHT22;63461;51.416;6.758;2023-12-20T03:24:54;7.30;99.90
74901;DHT22;63461;51.416;6.758;2023-12-20T03:27:20;7.30;99.90
74901;DHT22;63461;51.416;6.758;2023-12-20T03:29:46;7.30;99.90
74901;DHT22;63461;51.416;6.758;2023-12-20T03:32:11;7.20;99.90
74901;DHT22;63461;51.416;6.758;2023-12-20T03:34:37;7.20;99.90
74901;DHT22;63461;51.416;6.758;2023-12-20T03:37:03;7.30;99.90
74901;DHT22;63461;51.416;6.758;2023-12-20T03:39:29;7.40;99.90
74901;DHT22;63461;51.416;6.758;2023-12-20T03:41:54;7.30;99.90
74901;DHT22;63461;51.416;6.758;2023-12-20T03:44:20;7.20;99.90
74901;DHT22;63461;51.416;6.758;2023-12-20T03:46:46;7.20;99.90
74901;DHT22;63461;51.416;6.758;2023-12-20T03:49:13;7.10;99.90
74901;DHT22;63461;51.416;6.758;2023-12-20T03:51:38;7.10;99.90
74901;DHT22;63461;51.416;6.758;2023-12-20T03:54:04;7.10;99.90
74901;DHT22;63461;51.416;6.758;2023-12-20T03:56:30;7.10;99.90
74901;DHT22;63461;51.416;6.758;2023-12-20T03:58:56;7.00;99.90
74901;DHT22;63461;51.416;6.758;2023-12-20T04:01:21;6.90;99.90
74901;DHT22;63461;51.416;6.758;2023-12-20T04:03:47;6.90;99.90
74901;DHT22;63461;51.416;6.758;2023-12-20T04:06:17;6.80;99.90
74901;DHT22;63461;51.416;6.758;2023-12-20T04:08:43;6.80;99.90
74901;DHT22;63461;51.416;6.758;2023-12-20T04:11:09;6.80;99.90
74901;DHT22;63461;51.416;6.758;2023-12-20T04:13:34;6.70;99.90
74901;DHT22;63461;51.416;6.758;2023-12-20T04:16:00;6.70;99.90
74901;DHT22;63461;51.416;6.758;2023-12-20T04:18:26;6.70;99.90
74901;DHT22;63461;51.416;6.758;2023-12-20T04:20:52;6.90;99.90
74901;DHT22;63461;51.416;6.758;2023-12-20T04:23:17;6.90;99.90
74901;DHT22;63461;51.416;6.758;2023-12-20T04:25:43;6.90;99.90
74901;DHT22;63461;51.416;6.758;2023-12-20T04:28:09;6.90;99.90
74901;DHT22;63461;51.416;6.758;2023-12-20T04:30:35;6.90;99.90
74901;DHT22;63461;51.416;6.758;2023-12-20T04:33:00;6.90;99.90
74901;DHT22;63461;51.416;6.758;2023-12-20T04:35:26;7.00;99.90
74901;DHT22;63461;51.416;6.758;2023-12-20T04:37:52;6.90;99.90
74901;DHT22;63461;51.416;6.758;2023-12-20T04:40:18;6.90;99.90
74901;DHT22;63461;51.416;6.758;2023-12-20T04:42:44;7.00;99.90
74901;DHT22;63461;51.416;6.758;2023-12-20T04:45:09;7.00;99.90
74901;DHT22;63461;51.416;6.758;2023-12-20T04:47:38;6.90;99.90
74901;DHT22;63461;51.416;6.758;2023-12-20T04:50:04;6.90;99.90
74901;DHT22;63461;51.416;6.758;2023-12-20T04:52:30;7.00;99.90
74901;DHT22;63461;51.416;6.758;2023-12-20T04:54:56;7.00;99.90
74901;DHT22;63461;51.416;6.758;2023-12-20T04:57:22;6.90;99.90
74901;DHT22;63461;51.416;6.758;2023-12-20T04:59:48;6.70;99.90
74901;DHT22;63461;51.416;6.758;2023-12-20T05:02:14;6.80;99.90
74901;DHT22;63461;51.416;6.758;2023-12-20T05:04:39;6.80;99.90
74901;DHT22;63461;51.416;6.758;2023-12-20T05:07:05;6.70;99.90
74901;DHT22;63461;51.416;6.758;2023-12-20T05:09:32;6.70;99.90
74901;DHT22;63461;51.416;6.758;2023-12-20T05:11:57;6.60;99.90
74901;DHT22;63461;51.416;6.758;2023-12-20T05:14:23;6.50;99.90
74901;DHT22;63461;51.416;6.758;2023-12-20T05:16:50;6.60;99.90
74901;DHT22;63461;51.416;6.758;2023-12-20T05:19:18;6.60;99.90
74901;DHT22;63461;51.416;6.758;2023-12-20T05:21:44;6.70;99.90
74901;DHT22;63461;51.416;6.758;2023-12-20T05:24:10;6.80;99.90
74901;DHT22;63461;51.416;6.758;2023-12-20T05:26:36;6.80;99.90
74901;DHT22;63461;51.416;6.758;2023-12-20T05:29:02;6.80;99.90
74901;DHT22;63461;51.416;6.758;2023-12-20T05:31:27;6.70;99.90
74901;DHT22;63461;51.416;6.758;2023-12-20T05:33:53;6.80;99.90
74901;DHT22;63461;51.416;6.758;2023-12-20T05:36:19;6.80;99.90
74901;DHT22;63461;51.416;6.758;2023-12-20T05:38:45;6.90;99.90
74901;DHT22;63461;51.416;6.758;2023-12-20T05:41:11;6.80;99.90
74901;DHT22;63461;51.416;6.758;2023-12-20T05:43:37;7.00;99.90
74901;DHT22;63461;51.416;6.758;2023-12-20T05:46:33;6.90;99.90
74901;DHT22;63461;51.416;6.758;2023-12-20T05:48:59;7.00;99.90
74901;DHT22;63461;51.416;6.758;2023-12-20T05:51:28;6.90;99.90
74901;DHT22;63461;51.416;6.758;2023-12-20T05:53:54;6.90;99.90
74901;DHT22;63461;51.416;6.758;2023-12-20T05:56:19;7.00;99.90
74901;DHT22;63461;51.416;6.758;2023-12-20T05:58:45;6.90;99.90
74901;DHT22;63461;51.416;6.758;2023-12-20T06:01:11;6.90;99.90
74901;DHT22;63461;51.416;6.758;2023-12-20T06:03:41;6.90;99.90
74901;DHT22;63461;51.416;6.758;2023-12-20T06:06:07;6.90;99.90
74901;DHT22;63461;51.416;6.758;2023-12-20T06:08:33;6.90;99.90
74901;DHT22;63461;51.416;6.758;2023-12-20T06:10:59;7.00;99.90
74901;DHT22;63461;51.416;6.758;2023-12-20T06:13:26;7.00;99.90
74901;DHT22;63461;51.416;6.758;2023-12-20T06:15:54;7.00;99.90
74901;DHT22;63461;51.416;6.758;2023-12-20T06:18:20;7.00;99.90
74901;DHT22;63461;51.416;6.758;2023-12-20T06:20:46;7.00;99.90
74901;DHT22;63461;51.416;6.758;2023-12-20T06:23:12;7.00;99.90
74901;DHT22;63461;51.416;6.758;2023-12-20T06:25:38;7.00;99.90
74901;DHT22;63461;51.416;6.758;2023-12-20T06:28:04;7.00;99.90
74901;DHT22;63461;51.416;6.758;2023-12-20T06:30:30;7.00;99.90
74901;DHT22;63461;51.416;6.758;2023-12-20T06:32:58;7.00;99.90
74901;DHT22;63461;51.416;6.758;2023-12-20T06:35:24;7.00;99.90
74901;DHT22;63461;51.416;6.758;2023-12-20T06:37:50;7.10;99.90
74901;DHT22;63461;51.416;6.758;2023-12-20T06:40:16;7.10;99.90
74901;DHT22;63461;51.416;6.758;2023-12-20T06:42:42;7.20;99.90
74901;DHT22;63461;51.416;6.758;2023-12-20T06:45:08;7.10;99.90
74901;DHT22;63461;51.416;6.758;2023-12-20T06:47:34;7.10;99.90
74901;DHT22;63461;51.416;6.758;2023-12-20T06:50:00;7.10;99.90
74901;DHT22;63461;51.416;6.758;2023-12-20T06:52:28;7.10;99.90
74901;DHT22;63461;51.416;6.758;2023-12-20T07:06:27;7.10;99.90
74901;DHT22;63461;51.416;6.758;2023-12-20T07:09:12;7.20;99.90
74901;DHT22;63461;51.416;6.758;2023-12-20T07:13:19;7.20;99.90
74901;DHT22;63461;51.416;6.758;2023-12-20T07:15:57;7.20;99.90
74901;DHT22;63461;51.416;6.758;2023-12-20T07:18:26;7.30;99.90
74901;DHT22;63461;51.416;6.758;2023-12-20T07:21:03;7.30;99.90
74901;DHT22;63461;51.416;6.758;2023-12-20T07:23:29;7.30;99.90
74901;DHT22;63461;51.416;6.758;2023-12-20T07:26:05;7.30;99.90
74901;DHT22;63461;51.416;6.758;2023-12-20T07:31:53;7.40;99.90
74901;DHT22;63461;51.416;6.758;2023-12-20T07:34:29;7.40;99.90
74901;DHT22;63461;51.416;6.758;2023-12-20T07:37:38;7.40;99.90
74901;DHT22;63461;51.416;6.758;2023-12-20T07:45:29;7.30;99.90
74901;DHT22;63461;51.416;6.758;2023-12-20T07:49:08;7.30;99.90
74901;DHT22;63461;51.416;6.758;2023-12-20T07:52:06;7.40;99.90
74901;DHT22;63461;51.416;6.758;2023-12-20T07:54:52;7.40;99.90
74901;DHT22;63461;51.416;6.758;2023-12-20T07:57:45;7.40;99.90
74901;DHT22;63461;51.416;6.758;2023-12-20T08:00:21;7.50;99.90
74901;DHT22;63461;51.416;6.758;2023-12-20T08:03:13;7.40;99.90
74901;DHT22;63461;51.416;6.758;2023-12-20T08:23:09;7.50;99.90
74901;DHT22;63461;51.416;6.758;2023-12-20T08:39:09;7.60;99.90
74901;DHT22;63461;51.416;6.758;2023-12-20T08:50:09;7.50;99.90
74901;DHT22;63461;51.416;6.758;2023-12-20T09:08:55;7.50;99.90
74901;DHT22;63461;51.416;6.758;2023-12-20T09:11:30;7.50;99.90
74901;DHT22;63461;51.416;6.758;2023-12-20T09:13:56;7.50;99.90
74901;DHT22;63461;51.416;6.758;2023-12-20T09:16:21;7.50;99.90
74901;DHT22;63461;51.416;6.758;2023-12-20T09:18:47;7.50;99.90
74901;DHT22;63461;51.416;6.758;2023-12-20T09:21:13;7.60;99.90
74901;DHT22;63461;51.416;6.758;2023-12-20T09:23:39;7.50;99.90
74901;DHT22;63461;51.416;6.758;2023-12-20T09:26:12;7.50;99.90
74901;DHT22;63461;51.416;6.758;2023-12-20T09:29:15;7.50;99.90
74901;DHT22;63461;51.416;6.758;2023-12-20T09:32:28;7.50;99.90
74901;DHT22;63461;51.416;6.758;2023-12-20T09:35:15;7.50;99.90
74901;DHT22;63461;51.416;6.758;2023-12-20T09:37:45;7.50;99.90
74901;DHT22;63461;51.416;6.758;2023-12-20T09:40:43;7.50;99.90
74901;DHT22;63461;51.416;6.758;2023-12-20T09:43:30;7.70;99.90
74901;DHT22;63461;51.416;6.758;2023-12-20T09:45:59;7.60;99.90
74901;DHT22;63461;51.416;6.758;2023-12-20T09:48:26;7.60;99.90
74901;DHT22;63461;51.416;6.758;2023-12-20T09:50:53;7.60;99.90
74901;DHT22;63461;51.416;6.758;2023-12-20T09:53:19;7.60;99.90
74901;DHT22;63461;51.416;6.758;2023-12-20T09:55:45;7.60;99.90
74901;DHT22;63461;51.416;6.758;2023-12-20T09:58:11;7.50;99.90
74901;DHT22;63461;51.416;6.758;2023-12-20T10:00:37;7.70;99.90
74901;DHT22;63461;51.416;6.758;2023-12-20T10:03:03;7.60;99.90
74901;DHT22;63461;51.416;6.758;2023-12-20T10:05:34;7.60;99.90
74901;DHT22;63461;51.416;6.758;2023-12-20T10:08:01;7.70;99.90
74901;DHT22;63461;51.416;6.758;2023-12-20T10:10:27;7.80;99.90
74901;DHT22;63461;51.416;6.758;2023-12-20T10:13:06;7.70;99.90
74901;DHT22;63461;51.416;6.758;2023-12-20T10:15:33;7.80;99.90
74901;DHT22;63461;51.416;6.758;2023-12-20T10:17:59;7.70;99.90
74901;DHT22;63461;51.416;6.758;2023-12-20T10:20:25;7.80;99.90
74901;DHT22;63461;51.416;6.758;2023-12-20T10:22:52;7.90;99.90
74901;DHT22;63461;51.416;6.758;2023-12-20T10:25:20;7.90;99.90
74901;DHT22;63461;51.416;6.758;2023-12-20T10:27:46;7.90;99.90
74901;DHT22;63461;51.416;6.758;2023-12-20T10:30:13;7.90;99.90
74901;DHT22;63461;51.416;6.758;2023-12-20T10:32:42;7.90;99.90
74901;DHT22;63461;51.416;6.758;2023-12-20T10:35:09;7.80;99.90
74901;DHT22;63461;51.416;6.758;2023-12-20T10:37:36;7.80;99.90
74901;DHT22;63461;51.416;6.758;2023-12-20T10:40:04;7.90;99.90
74901;DHT22;63461;51.416;6.758;2023-12-20T10:42:31;7.90;99.90
74901;DHT22;63461;51.416;6.758;2023-12-20T10:45:00;7.80;99.90
74901;DHT22;63461;51.416;6.758;2023-12-20T10:47:28;7.80;99.90
74901;DHT22;63461;51.416;6.758;2023-12-20T10:49:55;7.90;99.90
74901;DHT22;63461;51.416;6.758;2023-12-20T10:52:26;7.90;99.90
74901;DHT22;63461;51.416;6.758;2023-12-20T10:54:53;8.00;99.90
74901;DHT22;63461;51.416;6.758;2023-12-20T10:57:19;7.90;99.90
74901;DHT22;63461;51.416;6.758;2023-12-20T10:59:45;8.00;99.90
74901;DHT22;63461;51.416;6.758;2023-12-20T11:02:14;7.90;99.90
74901;DHT22;63461;51.416;6.758;2023-12-20T11:05:01;7.90;99.90
74901;DHT22;63461;51.416;6.758;2023-12-20T11:07:36;8.00;99.90
74901;DHT22;63461;51.416;6.758;2023-12-20T11:10:16;8.00;99.90
74901;DHT22;63461;51.416;6.758;2023-12-20T11:13:06;8.00;99.90
74901;DHT22;63461;51.416;6.758;2023-12-20T11:15:36;8.10;99.90
74901;DHT22;63461;51.416;6.758;2023-12-20T11:18:04;8.10;99.90
74901;DHT22;63461;51.416;6.758;2023-12-20T11:20:39;8.10;99.90
74901;DHT22;63461;51.416;6.758;2023-12-20T11:23:06;8.10;99.90
74901;DHT22;63461;51.416;6.758;2023-12-20T11:25:55;8.20;99.90
74901;DHT22;63461;51.416;6.758;2023-12-20T11:28:23;8.30;99.90
74901;DHT22;63461;51.416;6.758;2023-12-20T11:30:54;8.40;99.90
74901;DHT22;63461;51.416;6.758;2023-12-20T11:33:45;8.30;99.90
74901;DHT22;63461;51.416;6.758;2023-12-20T11:36:15;8.20;99.90
74901;DHT22;63461;51.416;6.758;2023-12-20T11:39:04;8.30;99.90
74901;DHT22;63461;51.416;6.758;2023-12-20T11:41:34;8.30;99.90
74901;DHT22;63461;51.416;6.758;2023-12-20T11:44:00;8.20;99.90
74901;DHT22;63461;51.416;6.758;2023-12-20T11:46:26;8.20;99.90
74901;DHT22;63461;51.416;6.758;2023-12-20T11:48:52;8.20;99.90
74901;DHT22;63461;51.416;6.758;2023-12-20T11:51:18;8.20;99.90
74901;DHT22;63461;51.416;6.758;2023-12-20T11:53:43;8.20;99.90
74901;DHT22;63461;51.416;6.758;2023-12-20T11:56:10;8.10;99.90
74901;DHT22;63461;51.416;6.758;2023-12-20T11:58:36;8.10;99.90
74901;DHT22;63461;51.416;6.758;2023-12-20T12:01:02;8.20;99.90
74901;DHT22;63461;51.416;6.758;2023-12-20T12:03:28;8.10;99.90
74901;DHT22;63461;51.416;6.758;2023-12-20T12:05:54;8.20;99.90
74901;DHT22;63461;51.416;6.758;2023-12-20T12:08:20;8.20;99.90
74901;DHT22;63461;51.416;6.758;2023-12-20T12:10:46;8.20;99.90
74901;DHT22;63461;51.416;6.758;2023-12-20T12:13:12;8.20;99.90
74901;DHT22;63461;51.416;6.758;2023-12-20T12:15:39;8.20;99.90
74901;DHT22;63461;51.416;6.758;2023-12-20T12:18:07;8.10;99.90
74901;DHT22;63461;51.416;6.758;2023-12-20T12:20:33;8.20;99.90
74901;DHT22;63461;51.416;6.758;2023-12-20T12:23:00;8.10;99.90
74901;DHT22;63461;51.416;6.758;2023-12-20T12:53:28;8.10;99.90
74901;DHT22;63461;51.416;6.758;2023-12-20T12:55:54;8.10;99.90
74901;DHT22;63461;51.416;6.758;2023-12-20T12:58:20;8.10;99.90
74901;DHT22;63461;51.416;6.758;2023-12-20T13:00:46;8.20;99.90
74901;DHT22;63461;51.416;6.758;2023-12-20T13:03:12;8.10;99.90
74901;DHT22;63461;51.416;6.758;2023-12-20T13:05:38;8.10;99.90
74901;DHT22;63461;51.416;6.758;2023-12-20T13:08:04;8.10;99.90
74901;DHT22;63461;51.416;6.758;2023-12-20T13:10:30;8.10;99.90
74901;DHT22;63461;51.416;6.758;2023-12-20T13:12:56;8.00;99.90
74901;DHT22;63461;51.416;6.758;2023-12-20T13:15:22;8.10;99.90
74901;DHT22;63461;51.416;6.758;2023-12-20T13:17:47;8.00;99.90
74901;DHT22;63461;51.416;6.758;2023-12-20T13:20:13;8.00;99.90
74901;DHT22;63461;51.416;6.758;2023-12-20T13:22:39;8.10;99.90
74901;DHT22;63461;51.416;6.758;2023-12-20T13:25:05;8.00;99.90
74901;DHT22;63461;51.416;6.758;2023-12-20T13:27:31;7.90;99.90
74901;DHT22;63461;51.416;6.758;2023-12-20T13:29:58;7.90;99.90
74901;DHT22;63461;51.416;6.758;2023-12-20T13:32:24;7.90;99.90
74901;DHT22;63461;51.416;6.758;2023-12-20T13:34:50;7.90;99.90
74901;DHT22;63461;51.416;6.758;2023-12-20T13:37:16;7.90;99.90
74901;DHT22;63461;51.416;6.758;2023-12-20T13:39:41;8.00;99.90
74901;DHT22;63461;51.416;6.758;2023-12-20T13:42:07;8.00;99.90
74901;DHT22;63461;51.416;6.758;2023-12-20T13:44:33;8.00;99.90
74901;DHT22;63461;51.416;6.758;2023-12-20T13:47:00;8.00;99.90
74901;DHT22;63461;51.416;6.758;2023-12-20T13:49:26;8.10;99.90
74901;DHT22;63461;51.416;6.758;2023-12-20T13:51:54;7.90;99.90
74901;DHT22;63461;51.416;6.758;2023-12-20T13:54:20;8.00;99.90
74901;DHT22;63461;51.416;6.758;2023-12-20T13:56:47;7.90;99.90
74901;DHT22;63461;51.416;6.758;2023-12-20T13:59:13;7.90;99.90
74901;DHT22;63461;51.416;6.758;2023-12-20T14:01:41;8.10;99.90
74901;DHT22;63461;51.416;6.758;2023-12-20T14:04:07;8.00;99.90
74901;DHT22;63461;51.416;6.758;2023-12-20T14:06:33;8.00;99.90
74901;DHT22;63461;51.416;6.758;2023-12-20T14:08:59;8.10;99.90
74901;DHT22;63461;51.416;6.758;2023-12-20T14:11:28;8.00;99.90
74901;DHT22;63461;51.416;6.758;2023-12-20T14:13:54;8.00;99.90
74901;DHT22;63461;51.416;6.758;2023-12-20T14:16:24;8.00;99.90
74901;DHT22;63461;51.416;6.758;2023-12-20T14:18:50;8.00;99.90
74901;DHT22;63461;51.416;6.758;2023-12-20T14:21:17;8.00;99.90
74901;DHT22;63461;51.416;6.758;2023-12-20T14:23:45;8.00;99.90
74901;DHT22;63461;51.416;6.758;2023-12-20T14:26:11;8.00;99.90
74901;DHT22;63461;51.416;6.758;2023-12-20T14:28:43;8.00;99.90
74901;DHT22;63461;51.416;6.758;2023-12-20T14:31:09;8.00;99.90
74901;DHT22;63461;51.416;6.758;2023-12-20T14:33:36;8.00;99.90
74901;DHT22;63461;51.416;6.758;2023-12-20T14:36:05;8.00;99.90
74901;DHT22;63461;51.416;6.758;2023-12-20T14:38:34;8.10;99.90
74901;DHT22;63461;51.416;6.758;2023-12-20T14:41:00;8.10;99.90
74901;DHT22;63461;51.416;6.758;2023-12-20T14:43:29;8.00;99.90
74901;DHT22;63461;51.416;6.758;2023-12-20T14:45:55;8.10;99.90
74901;DHT22;63461;51.416;6.758;2023-12-20T14:48:20;8.10;99.90
74901;DHT22;63461;51.416;6.758;2023-12-20T14:50:47;8.10;99.90
74901;DHT22;63461;51.416;6.758;2023-12-20T14:53:14;8.00;99.90
74901;DHT22;63461;51.416;6.758;2023-12-20T14:55:42;8.00;99.90
74901;DHT22;63461;51.416;6.758;2023-12-20T14:58:08;8.10;99.90
74901;DHT22;63461;51.416;6.758;2023-12-20T15:00:34;8.00;99.90
74901;DHT22;63461;51.416;6.758;2023-12-20T15:02:59;8.10;99.90
74901;DHT22;63461;51.416;6.758;2023-12-20T15:05:25;8.20;99.90
74901;DHT22;63461;51.416;6.758;2023-12-20T15:07:52;8.20;99.90
74901;DHT22;63461;51.416;6.758;2023-12-20T15:10:18;8.20;99.90
74901;DHT22;63461;51.416;6.758;2023-12-20T15:12:44;8.20;99.90
74901;DHT22;63461;51.416;6.758;2023-12-20T15:15:13;8.20;99.90
74901;DHT22;63461;51.416;6.758;2023-12-20T15:17:40;8.20;99.90
74901;DHT22;63461;51.416;6.758;2023-12-20T15:20:06;8.20;99.90
74901;DHT22;63461;51.416;6.758;2023-12-20T15:22:34;8.20;99.90
74901;DHT22;63461;51.416;6.758;2023-12-20T15:25:00;8.20;99.90
74901;DHT22;63461;51.416;6.758;2023-12-20T15:27:27;8.20;99.90
74901;DHT22;63461;51.416;6.758;2023-12-20T15:29:53;8.10;99.90
74901;DHT22;63461;51.416;6.758;2023-12-20T15:32:19;8.20;99.90
74901;DHT22;63461;51.416;6.758;2023-12-20T15:34:45;8.20;99.90
74901;DHT22;63461;51.416;6.758;2023-12-20T15:37:11;8.10;99.90
74901;DHT22;63461;51.416;6.758;2023-12-20T15:39:37;8.10;99.90
74901;DHT22;63461;51.416;6.758;2023-12-20T15:42:03;8.10;99.90
74901;DHT22;63461;51.416;6.758;2023-12-20T15:44:28;8.10;99.90
74901;DHT22;63461;51.416;6.758;2023-12-20T15:46:54;8.10;99.90
74901;DHT22;63461;51.416;6.758;2023-12-20T15:49:20;8.10;99.90
74901;DHT22;63461;51.416;6.758;2023-12-20T15:51:46;8.20;99.90
74901;DHT22;63461;51.416;6.758;2023-12-20T15:54:12;8.20;99.90
74901;DHT22;63461;51.416;6.758;2023-12-20T15:56:38;8.20;99.90
74901;DHT22;63461;51.416;6.758;2023-12-20T15:59:06;8.20;99.90
74901;DHT22;63461;51.416;6.758;2023-12-20T16:01:32;8.20;99.90
74901;DHT22;63461;51.416;6.758;2023-12-20T16:03:58;8.20;99.90
74901;DHT22;63461;51.416;6.758;2023-12-20T16:06:24;8.20;99.90
74901;DHT22;63461;51.416;6.758;2023-12-20T16:08:50;8.10;99.90
74901;DHT22;63461;51.416;6.758;2023-12-20T16:11:16;8.20;99.90
74901;DHT22;63461;51.416;6.758;2023-12-20T16:13:41;8.20;99.90
74901;DHT22;63461;51.416;6.758;2023-12-20T16:16:07;8.20;99.90
74901;DHT22;63461;51.416;6.758;2023-12-20T16:18:33;8.30;99.90
74901;DHT22;63461;51.416;6.758;2023-12-20T16:21:01;8.20;99.90
74901;DHT22;63461;51.416;6.758;2023-12-20T16:23:29;8.20;99.90
74901;DHT22;63461;51.416;6.758;2023-12-20T16:25:55;8.20;99.90
74901;DHT22;63461;51.416;6.758;2023-12-20T16:28:20;8.20;99.90
74901;DHT22;63461;51.416;6.758;2023-12-20T16:30:47;8.20;99.90
74901;DHT22;63461;51.416;6.758;2023-12-20T16:33:12;8.10;99.90
74901;DHT22;63461;51.416;6.758;2023-12-20T16:35:39;8.20;99.90
74901;DHT22;63461;51.416;6.758;2023-12-20T16:38:05;8.20;99.90
74901;DHT22;63461;51.416;6.758;2023-12-20T16:40:30;8.10;99.90
74901;DHT22;63461;51.416;6.758;2023-12-20T16:42:56;8.20;99.90
74901;DHT22;63461;51.416;6.758;2023-12-20T16:45:22;8.20;99.90
74901;DHT22;63461;51.416;6.758;2023-12-20T16:47:48;8.20;99.90
74901;DHT22;63461;51.416;6.758;2023-12-20T16:50:15;8.20;99.90
74901;DHT22;63461;51.416;6.758;2023-12-20T16:52:40;8.20;99.90
74901;DHT22;63461;51.416;6.758;2023-12-20T16:55:10;8.20;99.90
74901;DHT22;63461;51.416;6.758;2023-12-20T16:57:37;8.20;99.90
74901;DHT22;63461;51.416;6.758;2023-12-20T17:00:03;8.20;99.90
74901;DHT22;63461;51.416;6.758;2023-12-20T17:02:29;8.20;99.90
74901;DHT22;63461;51.416;6.758;2023-12-20T17:04:55;8.20;99.90
74901;DHT22;63461;51.416;6.758;2023-12-20T17:07:21;8.20;99.90
74901;DHT22;63461;51.416;6.758;2023-12-20T17:09:49;8.20;99.90
74901;DHT22;63461;51.416;6.758;2023-12-20T17:12:15;8.20;99.90
74901;DHT22;63461;51.416;6.758;2023-12-20T17:14:41;8.20;99.90
74901;DHT22;63461;51.416;6.758;2023-12-20T17:17:07;8.20;99.90
74901;DHT22;63461;51.416;6.758;2023-12-20T17:19:34;8.20;99.90
74901;DHT22;63461;51.416;6.758;2023-12-20T17:22:00;8.30;99.90
74901;DHT22;63461;51.416;6.758;2023-12-20T17:24:27;8.20;99.90
74901;DHT22;63461;51.416;6.758;2023-12-20T17:26:52;8.30;99.90
74901;DHT22;63461;51.416;6.758;2023-12-20T17:29:18;8.30;99.90
74901;DHT22;63461;51.416;6.758;2023-12-20T17:31:44;8.30;99.90
74901;DHT22;63461;51.416;6.758;2023-12-20T17:34:10;8.30;99.90
74901;DHT22;63461;51.416;6.758;2023-12-20T17:36:40;8.30;99.90
74901;DHT22;63461;51.416;6.758;2023-12-20T17:39:06;8.30;99.90
74901;DHT22;63461;51.416;6.758;2023-12-20T17:41:32;8.30;99.90
74901;DHT22;63461;51.416;6.758;2023-12-20T17:43:59;8.30;99.90
74901;DHT22;63461;51.416;6.758;2023-12-20T17:46:28;8.30;99.90
74901;DHT22;63461;51.416;6.758;2023-12-20T17:48:53;8.40;99.90
74901;DHT22;63461;51.416;6.758;2023-12-20T17:51:21;8.30;99.90